Terminal Aerodrome Forecast
Issued by NWS Wilmington, OH

Current Version | Previous Version | Graphics & Text | Print | Product List | Glossary On
Versions: 1 2 3 4 5 6 7 8 9 10 11 12 13 14 15 16 17 18 19 20 21 22 23 24
645
FTUS41 KILN 262338
TAFILN
TAF
KILN 262338Z 2700/2724 18012KT P6SM FEW040 SCT250
     FM271200 19016G25KT P6SM VCSH BKN045
      TEMPO 2713/2716 -SHRA BKN022
     FM271600 21017KT P6SM VCSH SCT025 OVC070
     FM271900 23017G25KT P6SM BKN035=

USA.gov is the U.S. government's official web portal to all federal, state and local government web resources and services.